Fort Walton Beach, FL (32548)

8:51 PM CST on February 05, 2016 (GMT -0600)
Okaloosa Island Gulfarium | | Change Station
CLOSE
Current Station
Personal Weather Station
Location: Fort Walton Beach, FL
Elevation: 20 ft
Nearby Weather Stations
Active Advisory: Flood Warning

Elev 20 ft 30.39 °N, 86.59 °W | Updated 1 second ago

Clear
Clear
47.5 °F
Feels Like 43 °F
N
11.0
Wind Variable Wind from North
Gusts 15.0 mph

Today
High -- | Low -- °F
--% Chance of Precip.
Yesterday
High -- | Low -- °F
Precip. -- in
Pressure 30.36 in
Visibility 10.0 miles
Clouds Clear
Windchill 43 °F
Dew Point 26 °F
Humidity 43%
Rainfall 0.00 in
Snow Depth Not available.
6:35 AM 5:26 PM
Waning Crescent, 8% visible
METAR KHRT 060158Z AUTO 36005KT 10SM CLR 05/M03 A3035 RMK AO2 SLP280 T00481032 $
Pressure 30.36 in
Visibility 10.0 miles
Clouds Clear
Windchill 43 °F
Dew Point 26 °F
Humidity 43%
Rainfall 0.00 in
Snow Depth Not available.
6:35 AM 5:26 PM
Waning Crescent, 8% visible
METAR KHRT 060158Z AUTO 36005KT 10SM CLR 05/M03 A3035 RMK AO2 SLP280 T00481032 $

10-Day Weather Forecast

Almanac

Astronomy

Feb. 05, 2016 Rise Set
Actual Time
Civil Twilight
Nautical Twilight
Astronomical Twilight
Moon
Length of Visible Light
Length of Day
Tomorrow will be .
, % of the Moon is Illuminated

Today's Extremes

State Highs State Lows

Community

WunderPhotos

Upload Photos

1,890,913 photos uploaded!

WunderBlog® & News

Nearby

Air Quality

  Air Quality AQ Index Pollutant
Not available.

Snow Depth

Station Depth Elevation

Earthquake Activity

City Distance Mag. Time & Date
Minimum magnitude displayed is 2.5.

Coastal Water Temperatures

Place Temperature

Stations

Nearby Weather Stations

Station Location Temp. Windchill Dew Point Humidity Wind Precip. Elev Updated Type
                   

Watches & Warnings

Flood Warning
Issued: 8:39 PM CST Feb. 5, 2016 – National Weather Service

... Flood Warning extended until Sunday morning... the Flood Warning continues for
the shoal river near Crestview
* until Sunday morning.
* At 8pm Friday the stage was 8.4 feet.
* Minor flooding is occurring and minor flooding is forecast.
* Flood stage is 8 feet.
* The river will continue to fall to below flood stage by early Sunday morning.
* At 8.5 feet..lowland flooding will diminish as the river drops below 8 feet.


Lat... Lon 3078 8650 3078 8649 3069 8653 3069 8663
3070 8663 3070 8655